createdAt,value
2022-11-29T00:01:32.519Z,5.13
2022-11-29T00:03:58.769Z,5.15
2022-11-29T00:06:25.135Z,5.07
2022-11-29T00:08:51.389Z,5.34
2022-11-29T00:11:17.660Z,5.34
2022-11-29T00:13:43.921Z,5.19
2022-11-29T00:16:10.189Z,4.87
2022-11-29T00:18:36.537Z,4.46
2022-11-29T00:21:02.885Z,4.63
2022-11-29T00:23:29.157Z,4.66
2022-11-29T00:25:55.414Z,4.26
2022-11-29T00:28:21.667Z,4.71
2022-11-29T00:30:47.994Z,4.73
2022-11-29T00:33:14.294Z,4.42
2022-11-29T00:35:40.565Z,4.61
2022-11-29T00:38:06.818Z,4.69
2022-11-29T00:40:33.078Z,4.70
2022-11-29T00:42:59.327Z,4.93
2022-11-29T00:45:25.577Z,5.27
2022-11-29T00:47:51.809Z,5.44
2022-11-29T00:50:18.078Z,5.39
2022-11-29T00:52:44.347Z,5.91
2022-11-29T00:55:10.587Z,6.07
2022-11-29T00:57:36.851Z,5.78
2022-11-29T01:00:03.102Z,5.36
2022-11-29T01:02:29.384Z,5.65
2022-11-29T01:04:55.679Z,5.58
2022-11-29T01:07:22.036Z,5.51
2022-11-29T01:09:48.344Z,4.93
2022-11-29T01:12:14.592Z,4.86
2022-11-29T01:14:40.848Z,5.36
2022-11-29T01:17:07.129Z,5.14
2022-11-29T01:19:33.413Z,5.16
2022-11-29T01:21:59.697Z,5.15
2022-11-29T01:24:25.930Z,5.43
2022-11-29T01:26:52.174Z,4.82
2022-11-29T01:29:18.414Z,5.40
2022-11-29T01:31:44.650Z,5.11
2022-11-29T01:34:10.881Z,4.79
2022-11-29T01:36:37.121Z,4.87
2022-11-29T01:39:03.378Z,4.87
2022-11-29T01:41:29.615Z,4.88
2022-11-29T01:43:55.900Z,5.09
2022-11-29T01:46:22.245Z,5.33
2022-11-29T01:48:48.550Z,5.11
2022-11-29T01:51:14.867Z,4.94
2022-11-29T01:53:41.194Z,4.99
2022-11-29T01:56:07.531Z,4.84
2022-11-29T01:58:33.810Z,4.74
2022-11-29T02:01:00.105Z,4.81
2022-11-29T02:03:26.418Z,4.96
2022-11-29T02:05:52.669Z,5.38
2022-11-29T02:08:18.928Z,5.48
2022-11-29T02:10:45.197Z,5.43
2022-11-29T02:13:11.468Z,5.25
2022-11-29T02:15:37.733Z,5.43
2022-11-29T02:18:04.063Z,5.10
2022-11-29T02:20:30.306Z,5.43
2022-11-29T02:22:56.571Z,5.85
2022-11-29T02:25:22.892Z,5.61
2022-11-29T02:27:49.141Z,5.61
2022-11-29T02:30:15.437Z,5.26
2022-11-29T02:32:41.687Z,5.59
2022-11-29T02:35:07.923Z,5.09
2022-11-29T02:37:34.180Z,5.45
2022-11-29T02:40:00.437Z,5.69
2022-11-29T02:42:26.681Z,5.45
2022-11-29T02:44:52.948Z,5.79
2022-11-29T02:47:19.198Z,6.33
2022-11-29T02:49:45.445Z,6.58
2022-11-29T02:52:11.749Z,6.36
2022-11-29T02:54:38.012Z,6.47
2022-11-29T02:57:04.263Z,6.12
2022-11-29T02:59:30.501Z,6.05
2022-11-29T03:01:56.749Z,5.60
2022-11-29T03:04:23.017Z,5.44
2022-11-29T03:06:49.270Z,5.90
2022-11-29T03:09:15.509Z,5.82
2022-11-29T03:11:41.763Z,5.73
2022-11-29T03:14:08.018Z,6.02
2022-11-29T03:16:38.340Z,5.72
2022-11-29T03:19:07.680Z,5.52
2022-11-29T03:21:33.928Z,5.36
2022-11-29T03:24:00.170Z,5.42
2022-11-29T03:26:26.432Z,5.52
2022-11-29T03:28:52.700Z,5.60
2022-11-29T03:31:19.001Z,5.44
2022-11-29T03:33:45.258Z,5.53
2022-11-29T03:36:11.539Z,5.57
2022-11-29T03:38:37.802Z,5.60
2022-11-29T03:41:04.044Z,5.77
2022-11-29T03:43:30.301Z,5.71
2022-11-29T03:45:56.578Z,5.79
2022-11-29T03:48:22.915Z,5.70
2022-11-29T03:50:49.166Z,5.98
2022-11-29T03:53:15.407Z,5.64
2022-11-29T03:55:41.653Z,5.69
2022-11-29T03:58:07.909Z,5.48
2022-11-29T04:00:34.180Z,5.48
2022-11-29T04:03:00.484Z,5.72
2022-11-29T04:05:26.757Z,5.72
2022-11-29T04:07:53.076Z,5.85
2022-11-29T04:10:19.401Z,6.37
2022-11-29T04:12:45.781Z,7.42
2022-11-29T04:15:15.445Z,8.02
2022-11-29T04:17:42.007Z,8.92
2022-11-29T04:20:08.260Z,8.98
2022-11-29T04:22:34.557Z,8.37
2022-11-29T04:25:00.815Z,7.73
2022-11-29T04:27:27.076Z,8.43
2022-11-29T04:29:53.347Z,8.84
2022-11-29T04:32:19.581Z,8.84
2022-11-29T04:34:46.270Z,8.83
2022-11-29T04:37:12.657Z,8.42
2022-11-29T04:39:38.896Z,8.37
2022-11-29T04:42:05.135Z,8.18
2022-11-29T04:44:31.382Z,7.94
2022-11-29T04:46:57.621Z,7.19
2022-11-29T04:49:23.897Z,7.18
2022-11-29T04:51:50.150Z,7.20
2022-11-29T04:54:16.442Z,7.01
2022-11-29T04:56:42.715Z,6.66
2022-11-29T04:59:08.969Z,6.55
2022-11-29T05:01:35.282Z,6.80
2022-11-29T05:04:01.572Z,7.21
2022-11-29T05:06:27.815Z,7.62
2022-11-29T05:08:54.065Z,6.80
2022-11-29T05:11:26.268Z,6.17
2022-11-29T05:13:53.139Z,6.26
2022-11-29T05:16:19.470Z,6.48
2022-11-29T05:18:45.723Z,6.52
2022-11-29T05:21:11.993Z,7.30
2022-11-29T05:23:38.254Z,7.03
2022-11-29T05:26:04.499Z,7.30
2022-11-29T05:28:30.738Z,7.39
2022-11-29T05:30:57.018Z,8.31
2022-11-29T05:33:23.289Z,8.60
2022-11-29T05:35:49.541Z,8.35
2022-11-29T05:38:15.798Z,8.16
2022-11-29T05:40:42.123Z,7.90
2022-11-29T05:43:08.369Z,8.40
2022-11-29T05:45:34.626Z,7.13
2022-11-29T05:48:00.936Z,6.98
2022-11-29T05:50:27.180Z,6.93
2022-11-29T05:52:53.430Z,7.02
2022-11-29T05:55:19.703Z,6.64
2022-11-29T05:57:45.942Z,7.10
2022-11-29T06:00:12.202Z,7.10
2022-11-29T06:02:38.507Z,7.08
2022-11-29T06:05:04.779Z,7.14
2022-11-29T06:07:31.110Z,7.25
2022-11-29T06:10:01.509Z,7.69
2022-11-29T06:12:28.176Z,7.59
2022-11-29T06:14:54.423Z,8.06
2022-11-29T06:17:20.717Z,8.29
2022-11-29T06:19:46.982Z,7.61
2022-11-29T06:22:13.214Z,7.81
2022-11-29T06:24:39.457Z,7.92
2022-11-29T06:27:05.729Z,9.07
2022-11-29T06:29:31.988Z,9.19
2022-11-29T06:31:58.225Z,8.96
2022-11-29T06:34:30.399Z,8.62
2022-11-29T06:36:57.088Z,8.23
2022-11-29T06:39:23.353Z,8.20
2022-11-29T06:41:49.636Z,8.51
2022-11-29T06:44:15.904Z,8.40
2022-11-29T06:46:42.274Z,7.62
2022-11-29T06:49:08.538Z,7.55
2022-11-29T06:51:34.807Z,7.46
2022-11-29T06:54:01.074Z,7.14
2022-11-29T06:56:27.359Z,6.79
2022-11-29T06:58:53.630Z,6.66
2022-11-29T07:01:20.007Z,6.32
2022-11-29T07:03:46.300Z,7.12
2022-11-29T07:06:12.586Z,7.06
2022-11-29T07:08:38.848Z,7.15
2022-11-29T07:11:05.127Z,6.68
2022-11-29T07:13:31.367Z,6.80
2022-11-29T07:15:57.667Z,6.74
2022-11-29T07:18:23.946Z,7.15
2022-11-29T07:20:50.218Z,6.93
2022-11-29T07:23:16.478Z,6.57
2022-11-29T07:25:42.718Z,7.14
2022-11-29T07:28:09.032Z,6.80
2022-11-29T07:30:35.265Z,6.92
2022-11-29T07:33:01.621Z,7.74
2022-11-29T07:35:27.921Z,8.30
2022-11-29T07:37:54.195Z,9.42
2022-11-29T07:40:20.469Z,9.76
2022-11-29T07:42:46.719Z,9.68
2022-11-29T07:45:13.107Z,9.43
2022-11-29T07:47:39.453Z,9.00
2022-11-29T07:50:05.742Z,9.19
2022-11-29T07:52:31.989Z,9.33
2022-11-29T07:54:58.266Z,9.63
2022-11-29T07:57:24.594Z,8.65
2022-11-29T07:59:50.878Z,8.45
2022-11-29T08:02:17.208Z,7.97
2022-11-29T08:04:43.853Z,8.43
2022-11-29T08:07:10.464Z,8.37
2022-11-29T08:09:36.759Z,9.27
2022-11-29T08:12:03.074Z,10.11
2022-11-29T08:14:29.345Z,10.24
2022-11-29T08:16:55.633Z,10.66
2022-11-29T08:19:21.897Z,10.03
2022-11-29T08:21:48.179Z,10.41
2022-11-29T08:24:14.465Z,9.81
2022-11-29T08:26:40.735Z,10.04
2022-11-29T08:29:07.119Z,10.55
2022-11-29T08:31:33.428Z,10.03
2022-11-29T08:33:59.739Z,10.50
2022-11-29T08:36:26.048Z,10.00
2022-11-29T08:38:59.295Z,10.01
2022-11-29T08:41:28.647Z,10.08
2022-11-29T08:43:54.930Z,10.77
2022-11-29T08:46:21.276Z,10.61
2022-11-29T08:48:47.593Z,10.52
2022-11-29T08:51:13.870Z,10.08
2022-11-29T08:53:40.123Z,10.17
2022-11-29T08:56:31.880Z,10.32
2022-11-29T08:58:53.701Z,9.80
2022-11-29T09:01:20.007Z,9.75
2022-11-29T09:03:46.315Z,10.22
2022-11-29T09:06:12.982Z,10.03
2022-11-29T09:08:39.336Z,9.85
2022-11-29T09:11:05.597Z,9.28
2022-11-29T09:13:31.868Z,9.83
2022-11-29T09:15:58.155Z,9.57
2022-11-29T09:18:24.387Z,9.53
2022-11-29T09:20:50.678Z,8.89
2022-11-29T09:23:16.941Z,8.85
2022-11-29T09:25:43.239Z,9.03
2022-11-29T09:28:09.521Z,7.85
2022-11-29T09:30:35.799Z,7.43
2022-11-29T09:33:02.074Z,8.48
2022-11-29T09:35:28.333Z,7.66
2022-11-29T09:37:54.576Z,6.76
2022-11-29T09:40:20.908Z,6.95
2022-11-29T09:42:47.230Z,6.54
2022-11-29T09:45:13.483Z,6.57
2022-11-29T09:47:39.738Z,7.83
2022-11-29T09:50:05.998Z,8.26
2022-11-29T09:52:32.272Z,8.14
2022-11-29T09:54:58.506Z,7.99
2022-11-29T09:57:24.761Z,8.04
2022-11-29T09:59:50.993Z,8.50
2022-11-29T10:02:21.460Z,7.82
2022-11-29T10:04:48.195Z,8.26
2022-11-29T10:07:14.461Z,7.89
2022-11-29T10:09:40.716Z,7.22
2022-11-29T10:12:06.970Z,6.70
2022-11-29T10:14:33.233Z,4.77
2022-11-29T10:16:59.531Z,3.86
2022-11-29T10:19:25.822Z,3.39
2022-11-29T10:21:52.060Z,3.20
2022-11-29T10:24:18.306Z,2.99
2022-11-29T10:26:44.605Z,3.12
2022-11-29T10:29:10.880Z,2.81
2022-11-29T10:31:37.153Z,2.83
2022-11-29T10:34:05.771Z,2.73
2022-11-29T10:36:32.054Z,2.80
2022-11-29T10:38:58.299Z,2.90
2022-11-29T10:41:24.572Z,3.04
2022-11-29T10:43:50.845Z,3.18
2022-11-29T10:46:17.148Z,2.98
2022-11-29T10:48:43.414Z,2.80
2022-11-29T10:51:09.650Z,3.00
2022-11-29T10:53:35.941Z,2.97
2022-11-29T10:56:02.263Z,2.86
2022-11-29T10:58:29.037Z,2.75
2022-11-29T11:00:55.445Z,2.63
2022-11-29T11:03:21.717Z,2.97
2022-11-29T11:05:48.112Z,2.89
2022-11-29T11:08:14.404Z,3.29
2022-11-29T11:10:40.683Z,3.36
2022-11-29T11:13:06.944Z,3.22
2022-11-29T11:15:33.214Z,2.97
2022-11-29T11:17:59.529Z,3.02
2022-11-29T11:20:25.781Z,2.98
2022-11-29T11:22:52.041Z,2.75
2022-11-29T11:25:18.317Z,2.57
2022-11-29T11:27:44.717Z,2.51
2022-11-29T11:30:10.982Z,2.25
2022-11-29T11:32:37.246Z,2.77
2022-11-29T11:35:03.517Z,2.05
2022-11-29T11:37:30.152Z,2.31
2022-11-29T11:39:56.488Z,2.46
2022-11-29T11:42:22.811Z,2.28
2022-11-29T11:44:49.075Z,2.24
2022-11-29T11:47:15.345Z,2.29
2022-11-29T11:49:41.610Z,2.13
2022-11-29T11:52:07.889Z,2.16
2022-11-29T11:54:34.165Z,2.30
2022-11-29T11:57:00.406Z,2.04
2022-11-29T11:59:26.653Z,1.97
2022-11-29T12:01:52.928Z,1.82
2022-11-29T12:04:19.170Z,1.90
2022-11-29T12:06:45.491Z,2.17
2022-11-29T12:09:11.774Z,1.85
2022-11-29T12:11:38.064Z,2.14
2022-11-29T12:14:04.347Z,2.21
2022-11-29T12:16:30.605Z,2.29
2022-11-29T12:18:56.853Z,2.07
2022-11-29T12:21:23.118Z,2.21
2022-11-29T12:23:49.396Z,2.12
2022-11-29T12:26:34.464Z,2.28
2022-11-29T12:29:01.876Z,2.20
2022-11-29T12:31:28.212Z,2.37
2022-11-29T12:33:54.520Z,3.69
2022-11-29T12:36:20.800Z,4.43
2022-11-29T12:38:47.067Z,4.54
2022-11-29T12:41:13.372Z,4.27
2022-11-29T12:43:39.611Z,3.15
2022-11-29T12:46:05.930Z,1.97
2022-11-29T12:48:32.297Z,1.60
2022-11-29T12:50:58.678Z,1.59
2022-11-29T12:53:27.487Z,1.62
2022-11-29T12:55:54.132Z,1.82
2022-11-29T12:58:20.387Z,1.73
2022-11-29T13:00:46.632Z,2.63
2022-11-29T13:03:12.941Z,2.15
2022-11-29T13:05:39.215Z,1.87
2022-11-29T13:08:05.470Z,2.02
2022-11-29T13:10:31.737Z,1.69
2022-11-29T13:12:57.994Z,1.71
2022-11-29T13:15:24.259Z,1.70
2022-11-29T13:17:50.548Z,1.43
2022-11-29T13:20:16.839Z,1.46
2022-11-29T13:22:43.086Z,1.35
2022-11-29T13:25:09.351Z,1.29
2022-11-29T13:27:35.623Z,1.28
2022-11-29T13:30:01.886Z,1.12
2022-11-29T13:32:28.134Z,1.33
2022-11-29T13:34:54.412Z,1.22
2022-11-29T13:37:20.660Z,1.29
2022-11-29T13:39:46.890Z,1.23
2022-11-29T13:42:13.134Z,1.37
2022-11-29T13:44:39.393Z,1.35
2022-11-29T13:47:05.655Z,1.26
2022-11-29T13:49:31.929Z,1.10
2022-11-29T13:51:58.280Z,1.13
2022-11-29T13:54:24.526Z,1.12
2022-11-29T13:56:50.793Z,1.22
2022-11-29T13:59:17.034Z,1.16
2022-11-29T14:01:43.339Z,1.17
2022-11-29T14:04:09.612Z,1.24
2022-11-29T14:06:35.862Z,1.13
2022-11-29T14:09:18.440Z,1.18
2022-11-29T14:11:45.467Z,1.22
2022-11-29T14:14:11.704Z,1.21
2022-11-29T14:16:37.946Z,1.06
2022-11-29T14:19:04.193Z,1.08
2022-11-29T14:21:30.466Z,1.36
2022-11-29T14:23:56.712Z,1.19
2022-11-29T14:26:28.032Z,1.22
2022-11-29T14:28:55.118Z,1.10
2022-11-29T14:31:21.449Z,1.25
2022-11-29T14:33:47.770Z,1.18
2022-11-29T14:36:14.008Z,1.32
2022-11-29T14:38:40.266Z,1.16
2022-11-29T14:41:06.503Z,1.39
2022-11-29T14:43:32.771Z,1.36
2022-11-29T14:45:59.033Z,1.95
2022-11-29T14:48:25.279Z,1.53
2022-11-29T14:50:51.521Z,1.68
2022-11-29T14:53:17.785Z,1.53
2022-11-29T14:55:44.060Z,1.50
2022-11-29T14:58:10.327Z,1.61
2022-11-29T15:00:36.604Z,1.65
2022-11-29T15:03:03.021Z,1.57
2022-11-29T15:05:29.312Z,1.43
2022-11-29T15:07:55.610Z,1.67
2022-11-29T15:10:21.873Z,1.81
2022-11-29T15:12:48.172Z,2.02
2022-11-29T15:15:14.447Z,2.20
2022-11-29T15:17:40.713Z,1.97
2022-11-29T15:20:06.997Z,2.01
2022-11-29T15:22:33.316Z,2.01
2022-11-29T15:24:59.554Z,2.13
2022-11-29T15:27:25.815Z,2.28
2022-11-29T15:29:52.096Z,2.15
2022-11-29T15:32:18.331Z,2.12
2022-11-29T15:34:44.890Z,2.03
2022-11-29T15:37:11.395Z,2.11
2022-11-29T15:39:37.690Z,2.53
2022-11-29T15:42:03.942Z,2.67
2022-11-29T15:44:30.204Z,2.59
2022-11-29T15:46:56.484Z,2.48
2022-11-29T15:49:22.721Z,2.37
2022-11-29T15:51:48.985Z,2.35
2022-11-29T15:54:15.233Z,2.31
2022-11-29T15:56:41.486Z,2.47
2022-11-29T15:59:07.747Z,2.46
2022-11-29T16:01:34.061Z,2.66
2022-11-29T16:04:00.341Z,2.48
2022-11-29T16:06:26.621Z,2.43
2022-11-29T16:08:52.881Z,2.52
2022-11-29T16:11:19.130Z,2.77
2022-11-29T16:13:45.394Z,2.76
2022-11-29T16:16:14.687Z,3.14
2022-11-29T16:18:40.976Z,3.43
2022-11-29T16:21:07.215Z,3.64
2022-11-29T16:23:33.475Z,3.24
2022-11-29T16:25:59.779Z,3.56
2022-11-29T16:28:26.061Z,3.11
2022-11-29T16:30:52.344Z,2.97
2022-11-29T16:33:18.622Z,3.02
2022-11-29T16:35:44.900Z,3.12
2022-11-29T16:38:11.149Z,2.95
2022-11-29T16:40:37.399Z,2.93
2022-11-29T16:43:03.679Z,3.09
2022-11-29T16:45:30.027Z,3.14
2022-11-29T16:47:56.318Z,2.94
2022-11-29T16:50:22.560Z,3.23
2022-11-29T16:52:50.842Z,3.38
2022-11-29T16:55:21.194Z,3.35
2022-11-29T16:57:47.447Z,3.71
2022-11-29T17:00:13.703Z,3.74
2022-11-29T17:02:39.995Z,4.05
2022-11-29T17:05:06.258Z,4.36
2022-11-29T17:07:32.576Z,4.51
2022-11-29T17:09:58.865Z,4.88
2022-11-29T17:12:25.118Z,4.35
2022-11-29T17:14:51.406Z,4.53
2022-11-29T17:17:17.692Z,4.28
2022-11-29T17:19:43.963Z,3.97
2022-11-29T17:22:10.229Z,4.03
2022-11-29T17:24:36.558Z,4.61
2022-11-29T17:27:02.843Z,4.48
2022-11-29T17:29:29.175Z,4.72
2022-11-29T17:31:55.468Z,4.63
2022-11-29T17:34:21.783Z,4.31
2022-11-29T17:36:48.035Z,4.16
2022-11-29T17:39:14.299Z,4.88
2022-11-29T17:41:40.554Z,4.60
2022-11-29T17:44:06.841Z,4.81
2022-11-29T17:46:33.082Z,4.76
2022-11-29T17:48:59.357Z,5.17
2022-11-29T17:51:55.584Z,5.35
2022-11-29T17:54:11.876Z,4.88
2022-11-29T17:56:38.146Z,4.76
2022-11-29T17:59:04.420Z,5.06
2022-11-29T18:01:30.731Z,5.01
2022-11-29T18:03:57.062Z,5.25
2022-11-29T18:06:23.343Z,5.57
2022-11-29T18:08:49.615Z,5.52
2022-11-29T18:11:15.878Z,5.57
2022-11-29T18:13:42.161Z,5.33
2022-11-29T18:16:08.435Z,5.57
2022-11-29T18:18:34.722Z,5.16
2022-11-29T18:21:00.988Z,5.25
2022-11-29T18:23:27.253Z,5.49
2022-11-29T18:25:53.544Z,5.57
2022-11-29T18:28:19.781Z,6.04
2022-11-29T18:30:46.085Z,5.94
2022-11-29T18:33:12.360Z,6.29
2022-11-29T18:35:38.626Z,6.23
2022-11-29T18:38:20.156Z,6.11
2022-11-29T18:40:46.442Z,5.71
2022-11-29T18:43:12.690Z,5.58
2022-11-29T18:45:38.997Z,5.42
2022-11-29T18:48:05.310Z,5.41
2022-11-29T18:50:31.567Z,5.14
2022-11-29T18:52:57.904Z,5.61
2022-11-29T18:55:24.243Z,5.66
2022-11-29T18:57:50.687Z,5.57
2022-11-29T19:00:17.044Z,6.27
2022-11-29T19:02:43.432Z,6.71
2022-11-29T19:05:09.931Z,6.70
2022-11-29T19:07:36.291Z,6.76
2022-11-29T19:10:02.579Z,6.86
2022-11-29T19:12:28.912Z,7.32
2022-11-29T19:14:55.733Z,8.31
2022-11-29T19:17:22.262Z,8.80
2022-11-29T19:19:48.640Z,8.93
2022-11-29T19:22:15.091Z,8.92
2022-11-29T19:24:41.416Z,9.61
2022-11-29T19:27:07.774Z,9.61
2022-11-29T19:29:45.893Z,9.57
2022-11-29T19:32:12.349Z,9.86
2022-11-29T19:34:38.626Z,10.25
2022-11-29T19:37:04.899Z,11.03
2022-11-29T19:39:31.180Z,11.08
2022-11-29T19:41:57.446Z,11.42
2022-11-29T19:44:29.139Z,10.99
2022-11-29T19:46:56.210Z,10.82
2022-11-29T19:49:22.486Z,10.87
2022-11-29T19:51:48.758Z,11.35
2022-11-29T19:54:15.061Z,11.45
2022-11-29T19:56:41.322Z,11.01
2022-11-29T19:59:07.602Z,11.26
2022-11-29T20:01:40.378Z,10.98
2022-11-29T20:04:07.428Z,11.60
2022-11-29T20:06:33.695Z,11.67
2022-11-29T20:08:59.973Z,11.98
2022-11-29T20:11:26.234Z,11.87
2022-11-29T20:13:52.538Z,12.07
2022-11-29T20:16:18.874Z,11.78
2022-11-29T20:18:50.461Z,12.15
2022-11-29T20:21:17.295Z,11.97
2022-11-29T20:23:43.599Z,11.91
2022-11-29T20:26:09.888Z,12.23
2022-11-29T20:28:36.161Z,12.56
2022-11-29T20:31:02.482Z,13.78
2022-11-29T20:33:28.803Z,13.71
2022-11-29T20:35:55.058Z,13.37
2022-11-29T20:38:21.313Z,13.49
2022-11-29T20:40:47.585Z,13.39
2022-11-29T20:43:13.844Z,13.48
2022-11-29T20:45:40.113Z,14.48
2022-11-29T20:48:06.396Z,14.06
2022-11-29T20:50:32.676Z,14.72
2022-11-29T20:52:58.976Z,16.29
2022-11-29T20:55:25.255Z,16.84
2022-11-29T20:57:51.535Z,18.65
2022-11-29T21:00:17.813Z,16.74
2022-11-29T21:02:44.072Z,15.25
2022-11-29T21:05:10.337Z,15.70
2022-11-29T21:07:36.624Z,15.81
2022-11-29T21:10:02.942Z,14.18
2022-11-29T21:12:29.330Z,13.79
2022-11-29T21:14:55.810Z,13.07
2022-11-29T21:17:22.082Z,13.26
2022-11-29T21:19:48.345Z,13.01
2022-11-29T21:22:14.605Z,12.22
2022-11-29T21:24:40.876Z,12.17
2022-11-29T21:27:07.118Z,12.25
2022-11-29T21:29:33.371Z,12.07
2022-11-29T21:31:59.642Z,12.27
2022-11-29T21:34:25.922Z,11.96
2022-11-29T21:36:52.250Z,11.56
2022-11-29T21:39:18.531Z,11.83
2022-11-29T21:41:44.799Z,11.68
2022-11-29T21:44:11.081Z,11.55
2022-11-29T21:46:37.388Z,10.87
2022-11-29T21:49:03.740Z,10.94
2022-11-29T21:51:30.017Z,11.06
2022-11-29T21:53:56.299Z,11.01
2022-11-29T21:56:22.558Z,10.13
2022-11-29T21:58:48.810Z,10.43
2022-11-29T22:01:15.111Z,10.62
2022-11-29T22:03:41.424Z,9.95
2022-11-29T22:06:07.674Z,9.98
2022-11-29T22:08:33.911Z,9.50
2022-11-29T22:11:00.168Z,9.94
2022-11-29T22:13:26.519Z,9.60
2022-11-29T22:15:52.778Z,10.03
2022-11-29T22:18:19.056Z,9.67
2022-11-29T22:20:45.317Z,9.27
2022-11-29T22:23:11.572Z,9.24
2022-11-29T22:25:37.837Z,9.31
2022-11-29T22:28:04.103Z,9.20
2022-11-29T22:30:30.384Z,8.94
2022-11-29T22:32:56.626Z,8.80
2022-11-29T22:35:22.890Z,8.92
2022-11-29T22:37:49.136Z,8.79
2022-11-29T22:40:15.365Z,8.87
2022-11-29T22:42:41.624Z,8.78
2022-11-29T22:45:07.866Z,8.79
2022-11-29T22:47:34.110Z,9.33
2022-11-29T22:50:00.400Z,9.02
2022-11-29T22:52:26.763Z,8.77
2022-11-29T22:54:53.009Z,8.86
2022-11-29T22:57:19.260Z,8.68
2022-11-29T22:59:45.542Z,8.99
2022-11-29T23:02:11.838Z,8.59
2022-11-29T23:04:38.130Z,8.63
2022-11-29T23:07:04.430Z,8.51
2022-11-29T23:09:30.718Z,8.74
2022-11-29T23:11:56.975Z,8.31
2022-11-29T23:14:23.239Z,8.11
2022-11-29T23:16:49.552Z,8.14
2022-11-29T23:19:15.879Z,7.98
2022-11-29T23:21:42.146Z,8.73
2022-11-29T23:24:08.415Z,8.35
2022-11-29T23:26:34.695Z,8.88
2022-11-29T23:29:00.938Z,8.21
2022-11-29T23:31:27.275Z,8.86
2022-11-29T23:33:53.600Z,9.01
2022-11-29T23:36:19.874Z,9.03
2022-11-29T23:38:46.126Z,8.71
2022-11-29T23:41:12.390Z,8.96
2022-11-29T23:43:38.655Z,9.35
2022-11-29T23:46:04.952Z,8.72
2022-11-29T23:48:31.211Z,8.94
2022-11-29T23:50:57.463Z,8.94
2022-11-29T23:53:23.736Z,8.58
2022-11-29T23:55:50.022Z,8.84
2022-11-29T23:58:16.318Z,8.35
